首页
METAR-TAF:

METAR-TAF

机场 :

Shreveport Regional Airport

什里夫波特, 路易斯安那州, 美国

纬度: 32-26-49N, 经度: 093-49-27W, 海拔: 78米

当前天气观测

该预报发布于1小时和12分钟前的13:56 UTC
静风
温度 26°C
湿度 79%
气压 1018 hPa
能見度: 16.1公里
少量云层高于1500英尺
多云层高于6500英尺
阴天层高于8000英尺
小雨

METAR: KSHV 181356Z 00000KT 10SM -RA FEW015 BKN065 OVC080 26/22 A3006 RMK RAB08 SLPNO

时间: 10:08 (15:08 UTC)

预报

该预报发布于3小时和23分钟前的11:45 UTC
预报有效从18日的 12点(UTC)到 19日的 12点(UTC)
风速3节,风向多变
能見度: 10公里
散云层高于7000英尺
多云层高于12000英尺
阴天层高于25000英尺
附近有阵雨
从 18日的 1500点(UTC)
风速6节,风向多变
能見度: 9.7公里
多云层高于2500英尺
阴天层高于3500英尺, 积雨云.
小阵雨, 附近有雷暴
从 18日的 1800点(UTC)
风速6节,风向东转东北
能見度: 6.4公里
多云层高于3500英尺, 积雨云.
阴天层高于10000英尺
阵雨, 附近有雷暴
从 19日的 0000点(UTC)
风速5节,风向北转东北
能見度: 10公里
多云层高于4500英尺
多云层高于7000英尺
阴天层高于10000英尺
附近有阵雨,

TAF: KSHV 181145Z 1812/1912 VRB03KT P6SM VCSH SCT070 BKN120 OVC250 FM181500 VRB06KT 6SM -SHRA VCTS BKN025 OVC035CB FM181800 07006KT 4SM SHRA VCTS BKN035CB OVC100 FM190000 03005KT P6SM VCSH BKN045 BKN070 OVC100

超过4000个机场的气象观测和天气预报(METAR&TAF报告)。

可查询的气象台以黄色和红色小点在地图上表示。

将鼠标移到小点上方,可查看气象台名称。

然后点击查看天气观测和预报。

如需切换地图:点击带黑十字的绿色按钮放大地图;点击带横线的绿色按钮缩小地图;或者点击绿色箭头查看邻近地区的地图。


METAR-TAF: